Terminal Aerodrome Forecast
Issued by NWS

Home | Current Version | Previous Version | Graphics & Text | Print | Product List | Glossary On
Versions: 1 2 3 4 5 6 7 8 9 10 11 12 13 14 15
000
FTUS43 KBIS 222320
TAFJMS
TAF
KJMS 222320Z 2300/2324 09010KT P6SM VCTS BKN100CB
     FM230600 11009KT P6SM SHRA BKN090
      TEMPO 2306/2309 4SM TS OVC040CB
     FM231200 12009KT P6SM SHRA VCTS BKN090CB
     FM231800 14009KT P6SM -SHRA VCTS OVC050CB
     FM232100 27010KT P6SM -SHRA VCTS SCT090CB=

USA.gov is the U.S. government's official web portal to all federal, state and local government web resources and services.